sensor_id;sensor_type;location;lat;lon;timestamp;P1;durP1;ratioP1;P2;durP2;ratioP2
7831;SDS011;3961;42.058;25.586;2022-08-19T00:01:36;12.17;;;8.10;;
7831;SDS011;3961;42.058;25.586;2022-08-19T00:04:03;15.67;;;9.00;;
7831;SDS011;3961;42.058;25.586;2022-08-19T00:06:31;11.80;;;8.87;;
7831;SDS011;3961;42.058;25.586;2022-08-19T00:08:59;16.60;;;8.30;;
7831;SDS011;3961;42.058;25.586;2022-08-19T00:11:28;12.97;;;8.90;;
7831;SDS011;3961;42.058;25.586;2022-08-19T00:13:54;14.37;;;9.37;;
7831;SDS011;3961;42.058;25.586;2022-08-19T00:16:22;13.67;;;9.00;;
7831;SDS011;3961;42.058;25.586;2022-08-19T00:18:49;11.23;;;8.63;;
7831;SDS011;3961;42.058;25.586;2022-08-19T00:21:15;13.53;;;8.30;;
7831;SDS011;3961;42.058;25.586;2022-08-19T00:23:41;13.23;;;8.90;;
7831;SDS011;3961;42.058;25.586;2022-08-19T00:26:08;10.53;;;8.57;;
7831;SDS011;3961;42.058;25.586;2022-08-19T00:28:36;14.20;;;8.43;;
7831;SDS011;3961;42.058;25.586;2022-08-19T00:31:05;20.67;;;8.70;;
7831;SDS011;3961;42.058;25.586;2022-08-19T00:33:32;12.47;;;8.33;;
7831;SDS011;3961;42.058;25.586;2022-08-19T00:35:59;13.23;;;8.30;;
7831;SDS011;3961;42.058;25.586;2022-08-19T00:38:25;16.87;;;9.07;;
7831;SDS011;3961;42.058;25.586;2022-08-19T00:40:51;17.53;;;8.20;;
7831;SDS011;3961;42.058;25.586;2022-08-19T00:43:21;13.47;;;8.77;;
7831;SDS011;3961;42.058;25.586;2022-08-19T00:45:49;14.23;;;9.33;;
7831;SDS011;3961;42.058;25.586;2022-08-19T00:48:17;12.87;;;9.13;;
7831;SDS011;3961;42.058;25.586;2022-08-19T00:50:44;14.03;;;9.37;;
7831;SDS011;3961;42.058;25.586;2022-08-19T00:53:11;19.20;;;8.80;;
7831;SDS011;3961;42.058;25.586;2022-08-19T00:55:40;16.00;;;10.03;;
7831;SDS011;3961;42.058;25.586;2022-08-19T00:58:10;12.17;;;8.90;;
7831;SDS011;3961;42.058;25.586;2022-08-19T01:00:39;13.10;;;8.90;;
7831;SDS011;3961;42.058;25.586;2022-08-19T01:03:06;13.43;;;8.93;;
7831;SDS011;3961;42.058;25.586;2022-08-19T01:05:36;23.87;;;9.27;;
7831;SDS011;3961;42.058;25.586;2022-08-19T01:08:05;11.10;;;8.90;;
7831;SDS011;3961;42.058;25.586;2022-08-19T01:10:32;25.63;;;9.90;;
7831;SDS011;3961;42.058;25.586;2022-08-19T01:13:01;12.67;;;9.00;;
7831;SDS011;3961;42.058;25.586;2022-08-19T01:15:32;15.07;;;9.00;;
7831;SDS011;3961;42.058;25.586;2022-08-19T01:18:01;14.83;;;8.40;;
7831;SDS011;3961;42.058;25.586;2022-08-19T01:20:31;16.50;;;9.43;;
7831;SDS011;3961;42.058;25.586;2022-08-19T01:22:59;22.60;;;10.27;;
7831;SDS011;3961;42.058;25.586;2022-08-19T01:25:29;15.23;;;10.80;;
7831;SDS011;3961;42.058;25.586;2022-08-19T01:27:59;19.77;;;11.07;;
7831;SDS011;3961;42.058;25.586;2022-08-19T01:30:27;16.03;;;10.27;;
7831;SDS011;3961;42.058;25.586;2022-08-19T01:32:55;14.07;;;10.37;;
7831;SDS011;3961;42.058;25.586;2022-08-19T01:35:22;44.63;;;22.30;;
7831;SDS011;3961;42.058;25.586;2022-08-19T01:37:54;30.97;;;15.83;;
7831;SDS011;3961;42.058;25.586;2022-08-19T01:40:23;52.97;;;23.63;;
7831;SDS011;3961;42.058;25.586;2022-08-19T01:42:51;32.10;;;17.43;;
7831;SDS011;3961;42.058;25.586;2022-08-19T01:45:18;25.10;;;13.50;;
7831;SDS011;3961;42.058;25.586;2022-08-19T01:47:45;45.47;;;23.60;;
7831;SDS011;3961;42.058;25.586;2022-08-19T01:50:11;15.67;;;11.47;;
7831;SDS011;3961;42.058;25.586;2022-08-19T01:52:38;40.63;;;21.27;;
7831;SDS011;3961;42.058;25.586;2022-08-19T01:55:06;27.13;;;14.70;;
7831;SDS011;3961;42.058;25.586;2022-08-19T01:57:33;21.93;;;10.87;;
7831;SDS011;3961;42.058;25.586;2022-08-19T02:00:00;14.87;;;10.77;;
7831;SDS011;3961;42.058;25.586;2022-08-19T02:02:27;17.73;;;12.13;;
7831;SDS011;3961;42.058;25.586;2022-08-19T02:04:53;22.83;;;13.87;;
7831;SDS011;3961;42.058;25.586;2022-08-19T02:07:21;21.60;;;13.20;;
7831;SDS011;3961;42.058;25.586;2022-08-19T02:09:47;18.63;;;13.87;;
7831;SDS011;3961;42.058;25.586;2022-08-19T02:12:13;19.00;;;13.80;;
7831;SDS011;3961;42.058;25.586;2022-08-19T02:14:39;19.63;;;13.23;;
7831;SDS011;3961;42.058;25.586;2022-08-19T02:17:05;76.30;;;39.60;;
7831;SDS011;3961;42.058;25.586;2022-08-19T02:19:31;57.63;;;31.20;;
7831;SDS011;3961;42.058;25.586;2022-08-19T02:21:58;41.77;;;25.10;;
7831;SDS011;3961;42.058;25.586;2022-08-19T02:24:24;35.53;;;18.77;;
7831;SDS011;3961;42.058;25.586;2022-08-19T02:26:49;26.77;;;17.37;;
7831;SDS011;3961;42.058;25.586;2022-08-19T02:29:16;32.57;;;20.90;;
7831;SDS011;3961;42.058;25.586;2022-08-19T02:31:41;37.97;;;22.77;;
7831;SDS011;3961;42.058;25.586;2022-08-19T02:34:07;26.10;;;15.77;;
7831;SDS011;3961;42.058;25.586;2022-08-19T02:36:32;20.10;;;13.60;;
7831;SDS011;3961;42.058;25.586;2022-08-19T02:38:58;24.60;;;12.97;;
7831;SDS011;3961;42.058;25.586;2022-08-19T02:41:25;21.90;;;12.90;;
7831;SDS011;3961;42.058;25.586;2022-08-19T02:43:52;25.23;;;15.73;;
7831;SDS011;3961;42.058;25.586;2022-08-19T02:46:20;24.40;;;14.23;;
7831;SDS011;3961;42.058;25.586;2022-08-19T02:48:57;27.03;;;16.93;;
7831;SDS011;3961;42.058;25.586;2022-08-19T02:51:28;35.63;;;16.07;;
7831;SDS011;3961;42.058;25.586;2022-08-19T02:53:55;31.33;;;19.23;;
7831;SDS011;3961;42.058;25.586;2022-08-19T02:56:21;27.33;;;18.50;;
7831;SDS011;3961;42.058;25.586;2022-08-19T02:58:47;33.73;;;17.77;;
7831;SDS011;3961;42.058;25.586;2022-08-19T03:04:09;37.53;;;23.90;;
7831;SDS011;3961;42.058;25.586;2022-08-19T03:06:39;36.47;;;24.33;;
7831;SDS011;3961;42.058;25.586;2022-08-19T03:09:06;26.53;;;17.27;;
7831;SDS011;3961;42.058;25.586;2022-08-19T03:11:32;21.13;;;13.27;;
7831;SDS011;3961;42.058;25.586;2022-08-19T03:13:59;25.37;;;16.53;;
7831;SDS011;3961;42.058;25.586;2022-08-19T03:16:27;18.43;;;13.13;;
7831;SDS011;3961;42.058;25.586;2022-08-19T03:18:55;15.53;;;12.07;;
7831;SDS011;3961;42.058;25.586;2022-08-19T03:21:25;13.33;;;10.83;;
7831;SDS011;3961;42.058;25.586;2022-08-19T03:23:58;19.73;;;11.03;;
7831;SDS011;3961;42.058;25.586;2022-08-19T03:26:26;12.67;;;10.50;;
7831;SDS011;3961;42.058;25.586;2022-08-19T03:28:52;14.37;;;9.87;;
7831;SDS011;3961;42.058;25.586;2022-08-19T03:31:18;12.70;;;9.57;;
7831;SDS011;3961;42.058;25.586;2022-08-19T03:33:49;14.30;;;10.73;;
7831;SDS011;3961;42.058;25.586;2022-08-19T03:36:19;14.23;;;10.53;;
7831;SDS011;3961;42.058;25.586;2022-08-19T03:38:49;12.53;;;10.03;;
7831;SDS011;3961;42.058;25.586;2022-08-19T03:41:21;27.13;;;11.63;;
7831;SDS011;3961;42.058;25.586;2022-08-19T03:43:58;17.00;;;9.93;;
7831;SDS011;3961;42.058;25.586;2022-08-19T03:46:26;11.13;;;9.30;;
7831;SDS011;3961;42.058;25.586;2022-08-19T03:48:54;14.70;;;10.00;;
7831;SDS011;3961;42.058;25.586;2022-08-19T03:51:28;15.57;;;10.20;;
7831;SDS011;3961;42.058;25.586;2022-08-19T03:53:56;19.50;;;10.17;;
7831;SDS011;3961;42.058;25.586;2022-08-19T03:56:23;18.00;;;10.00;;
7831;SDS011;3961;42.058;25.586;2022-08-19T03:58:53;15.20;;;10.47;;
7831;SDS011;3961;42.058;25.586;2022-08-19T04:01:23;13.33;;;10.40;;
7831;SDS011;3961;42.058;25.586;2022-08-19T04:03:54;14.00;;;10.10;;
7831;SDS011;3961;42.058;25.586;2022-08-19T04:08:49;16.27;;;10.23;;
7831;SDS011;3961;42.058;25.586;2022-08-19T04:11:17;15.60;;;10.30;;
7831;SDS011;3961;42.058;25.586;2022-08-19T04:13:48;13.70;;;10.30;;
7831;SDS011;3961;42.058;25.586;2022-08-19T04:16:16;12.83;;;11.40;;
7831;SDS011;3961;42.058;25.586;2022-08-19T04:18:42;17.30;;;10.60;;
7831;SDS011;3961;42.058;25.586;2022-08-19T04:21:08;14.33;;;10.50;;
7831;SDS011;3961;42.058;25.586;2022-08-19T04:23:41;21.07;;;11.17;;
7831;SDS011;3961;42.058;25.586;2022-08-19T04:26:07;22.03;;;14.80;;
7831;SDS011;3961;42.058;25.586;2022-08-19T04:28:36;25.00;;;16.03;;
7831;SDS011;3961;42.058;25.586;2022-08-19T04:31:02;26.00;;;13.67;;
7831;SDS011;3961;42.058;25.586;2022-08-19T04:33:27;15.40;;;9.43;;
7831;SDS011;3961;42.058;25.586;2022-08-19T04:35:53;14.73;;;10.03;;
7831;SDS011;3961;42.058;25.586;2022-08-19T04:38:20;16.07;;;10.03;;
7831;SDS011;3961;42.058;25.586;2022-08-19T04:40:50;15.47;;;9.57;;
7831;SDS011;3961;42.058;25.586;2022-08-19T04:43:35;16.10;;;9.63;;
7831;SDS011;3961;42.058;25.586;2022-08-19T04:46:06;11.20;;;9.30;;
7831;SDS011;3961;42.058;25.586;2022-08-19T04:48:37;14.10;;;9.20;;
7831;SDS011;3961;42.058;25.586;2022-08-19T04:51:08;16.60;;;10.03;;
7831;SDS011;3961;42.058;25.586;2022-08-19T04:53:38;17.53;;;10.23;;
7831;SDS011;3961;42.058;25.586;2022-08-19T04:56:06;16.10;;;10.43;;
7831;SDS011;3961;42.058;25.586;2022-08-19T04:58:34;19.17;;;10.80;;
7831;SDS011;3961;42.058;25.586;2022-08-19T05:01:00;23.87;;;11.27;;
7831;SDS011;3961;42.058;25.586;2022-08-19T05:03:26;22.63;;;12.20;;
7831;SDS011;3961;42.058;25.586;2022-08-19T05:05:52;23.80;;;12.73;;
7831;SDS011;3961;42.058;25.586;2022-08-19T05:08:19;23.63;;;13.27;;
7831;SDS011;3961;42.058;25.586;2022-08-19T05:10:50;22.97;;;13.70;;
7831;SDS011;3961;42.058;25.586;2022-08-19T05:13:17;29.80;;;14.97;;
7831;SDS011;3961;42.058;25.586;2022-08-19T05:15:44;28.77;;;14.40;;
7831;SDS011;3961;42.058;25.586;2022-08-19T05:18:17;28.23;;;15.37;;
7831;SDS011;3961;42.058;25.586;2022-08-19T05:21:05;28.20;;;18.53;;
7831;SDS011;3961;42.058;25.586;2022-08-19T05:23:53;24.47;;;15.23;;
7831;SDS011;3961;42.058;25.586;2022-08-19T05:26:19;27.63;;;16.00;;
7831;SDS011;3961;42.058;25.586;2022-08-19T05:28:45;26.70;;;14.67;;
7831;SDS011;3961;42.058;25.586;2022-08-19T05:31:10;34.03;;;17.23;;
7831;SDS011;3961;42.058;25.586;2022-08-19T05:33:36;33.20;;;16.77;;
7831;SDS011;3961;42.058;25.586;2022-08-19T05:36:02;23.53;;;15.80;;
7831;SDS011;3961;42.058;25.586;2022-08-19T05:38:29;14.43;;;10.93;;
7831;SDS011;3961;42.058;25.586;2022-08-19T05:40:55;17.93;;;14.70;;
7831;SDS011;3961;42.058;25.586;2022-08-19T05:43:21;25.13;;;16.00;;
7831;SDS011;3961;42.058;25.586;2022-08-19T05:45:47;18.47;;;13.33;;
7831;SDS011;3961;42.058;25.586;2022-08-19T05:48:12;16.97;;;14.23;;
7831;SDS011;3961;42.058;25.586;2022-08-19T05:50:39;18.53;;;13.40;;
7831;SDS011;3961;42.058;25.586;2022-08-19T05:53:06;19.13;;;12.63;;
7831;SDS011;3961;42.058;25.586;2022-08-19T05:55:34;16.07;;;11.77;;
7831;SDS011;3961;42.058;25.586;2022-08-19T05:58:01;19.67;;;11.47;;
7831;SDS011;3961;42.058;25.586;2022-08-19T06:00:27;18.63;;;12.97;;
7831;SDS011;3961;42.058;25.586;2022-08-19T06:02:55;23.93;;;12.83;;
7831;SDS011;3961;42.058;25.586;2022-08-19T06:05:21;18.27;;;11.53;;
7831;SDS011;3961;42.058;25.586;2022-08-19T06:07:47;18.93;;;12.20;;
7831;SDS011;3961;42.058;25.586;2022-08-19T06:10:12;19.37;;;11.60;;
7831;SDS011;3961;42.058;25.586;2022-08-19T06:12:39;21.47;;;11.50;;
7831;SDS011;3961;42.058;25.586;2022-08-19T06:15:07;24.03;;;11.43;;
7831;SDS011;3961;42.058;25.586;2022-08-19T06:17:35;19.10;;;11.80;;
7831;SDS011;3961;42.058;25.586;2022-08-19T06:20:01;20.47;;;11.07;;
7831;SDS011;3961;42.058;25.586;2022-08-19T06:22:28;15.50;;;10.50;;
7831;SDS011;3961;42.058;25.586;2022-08-19T06:24:54;16.33;;;10.90;;
7831;SDS011;3961;42.058;25.586;2022-08-19T06:27:21;30.67;;;12.83;;
7831;SDS011;3961;42.058;25.586;2022-08-19T06:29:47;22.03;;;12.60;;
7831;SDS011;3961;42.058;25.586;2022-08-19T06:32:14;30.80;;;12.80;;
7831;SDS011;3961;42.058;25.586;2022-08-19T06:34:41;23.83;;;12.73;;
7831;SDS011;3961;42.058;25.586;2022-08-19T06:37:07;35.90;;;24.43;;
7831;SDS011;3961;42.058;25.586;2022-08-19T06:39:35;16.93;;;10.97;;
7831;SDS011;3961;42.058;25.586;2022-08-19T06:42:03;19.73;;;11.03;;
7831;SDS011;3961;42.058;25.586;2022-08-19T06:44:33;28.00;;;11.80;;
7831;SDS011;3961;42.058;25.586;2022-08-19T06:47:04;19.43;;;11.50;;
7831;SDS011;3961;42.058;25.586;2022-08-19T06:49:31;21.23;;;11.57;;
7831;SDS011;3961;42.058;25.586;2022-08-19T06:51:58;16.07;;;11.27;;
7831;SDS011;3961;42.058;25.586;2022-08-19T06:54:25;16.87;;;9.93;;
7831;SDS011;3961;42.058;25.586;2022-08-19T06:56:51;14.57;;;10.50;;
7831;SDS011;3961;42.058;25.586;2022-08-19T06:59:18;14.80;;;9.73;;
7831;SDS011;3961;42.058;25.586;2022-08-19T07:01:51;16.97;;;9.93;;
7831;SDS011;3961;42.058;25.586;2022-08-19T07:04:21;16.97;;;9.53;;
7831;SDS011;3961;42.058;25.586;2022-08-19T07:06:49;13.03;;;9.93;;
7831;SDS011;3961;42.058;25.586;2022-08-19T07:09:17;15.17;;;9.73;;
7831;SDS011;3961;42.058;25.586;2022-08-19T07:11:44;16.20;;;9.10;;
7831;SDS011;3961;42.058;25.586;2022-08-19T07:14:11;16.05;;;9.63;;
7831;SDS011;3961;42.058;25.586;2022-08-19T07:16:37;18.13;;;10.70;;
7831;SDS011;3961;42.058;25.586;2022-08-19T07:19:03;16.42;;;9.00;;
7831;SDS011;3961;42.058;25.586;2022-08-19T07:21:29;11.43;;;9.10;;
7831;SDS011;3961;42.058;25.586;2022-08-19T07:23:55;20.52;;;9.00;;
7831;SDS011;3961;42.058;25.586;2022-08-19T07:26:23;13.10;;;9.57;;
7831;SDS011;3961;42.058;25.586;2022-08-19T07:28:50;12.55;;;9.15;;
7831;SDS011;3961;42.058;25.586;2022-08-19T07:31:18;14.55;;;8.77;;
7831;SDS011;3961;42.058;25.586;2022-08-19T07:33:47;20.15;;;9.82;;
7831;SDS011;3961;42.058;25.586;2022-08-19T07:36:15;10.40;;;7.95;;
7831;SDS011;3961;42.058;25.586;2022-08-19T07:38:45;12.23;;;8.98;;
7831;SDS011;3961;42.058;25.586;2022-08-19T07:41:19;13.80;;;8.43;;
7831;SDS011;3961;42.058;25.586;2022-08-19T07:43:47;11.68;;;8.65;;
7831;SDS011;3961;42.058;25.586;2022-08-19T07:46:14;15.80;;;9.32;;
7831;SDS011;3961;42.058;25.586;2022-08-19T07:48:42;13.43;;;8.23;;
7831;SDS011;3961;42.058;25.586;2022-08-19T07:51:12;13.10;;;8.43;;
7831;SDS011;3961;42.058;25.586;2022-08-19T07:53:40;12.45;;;8.40;;
7831;SDS011;3961;42.058;25.586;2022-08-19T07:56:05;10.30;;;8.38;;
7831;SDS011;3961;42.058;25.586;2022-08-19T07:58:33;10.02;;;8.85;;
7831;SDS011;3961;42.058;25.586;2022-08-19T08:01:02;17.08;;;8.50;;
7831;SDS011;3961;42.058;25.586;2022-08-19T08:03:29;14.18;;;8.63;;
7831;SDS011;3961;42.058;25.586;2022-08-19T08:06:14;9.60;;;8.18;;
7831;SDS011;3961;42.058;25.586;2022-08-19T08:08:59;14.30;;;8.15;;
7831;SDS011;3961;42.058;25.586;2022-08-19T08:11:47;14.73;;;8.60;;
7831;SDS011;3961;42.058;25.586;2022-08-19T08:14:28;15.63;;;9.13;;
7831;SDS011;3961;42.058;25.586;2022-08-19T08:17:00;13.80;;;8.25;;
7831;SDS011;3961;42.058;25.586;2022-08-19T08:19:27;12.60;;;8.82;;
7831;SDS011;3961;42.058;25.586;2022-08-19T08:21:54;15.07;;;8.70;;
7831;SDS011;3961;42.058;25.586;2022-08-19T08:24:21;10.63;;;8.73;;
7831;SDS011;3961;42.058;25.586;2022-08-19T08:26:47;13.05;;;8.70;;
7831;SDS011;3961;42.058;25.586;2022-08-19T08:29:13;10.02;;;8.15;;
7831;SDS011;3961;42.058;25.586;2022-08-19T08:31:41;11.60;;;8.68;;
7831;SDS011;3961;42.058;25.586;2022-08-19T08:34:08;10.82;;;8.40;;
7831;SDS011;3961;42.058;25.586;2022-08-19T08:36:37;17.08;;;9.85;;
7831;SDS011;3961;42.058;25.586;2022-08-19T08:39:11;12.30;;;8.57;;
7831;SDS011;3961;42.058;25.586;2022-08-19T08:44:51;12.85;;;8.93;;
7831;SDS011;3961;42.058;25.586;2022-08-19T08:47:22;8.32;;;7.18;;
7831;SDS011;3961;42.058;25.586;2022-08-19T08:50:04;14.88;;;8.65;;
7831;SDS011;3961;42.058;25.586;2022-08-19T08:52:36;10.75;;;7.53;;
7831;SDS011;3961;42.058;25.586;2022-08-19T08:55:12;9.88;;;7.95;;
7831;SDS011;3961;42.058;25.586;2022-08-19T09:00:17;12.85;;;7.75;;
7831;SDS011;3961;42.058;25.586;2022-08-19T09:02:46;17.17;;;8.13;;
7831;SDS011;3961;42.058;25.586;2022-08-19T09:05:12;12.50;;;8.13;;
7831;SDS011;3961;42.058;25.586;2022-08-19T09:07:46;10.18;;;7.57;;
7831;SDS011;3961;42.058;25.586;2022-08-19T09:15:47;10.77;;;7.80;;
7831;SDS011;3961;42.058;25.586;2022-08-19T09:18:17;10.70;;;8.02;;
7831;SDS011;3961;42.058;25.586;2022-08-19T09:20:43;9.13;;;7.97;;
7831;SDS011;3961;42.058;25.586;2022-08-19T09:23:11;11.77;;;7.97;;
7831;SDS011;3961;42.058;25.586;2022-08-19T09:25:37;10.93;;;7.32;;
7831;SDS011;3961;42.058;25.586;2022-08-19T09:28:05;12.07;;;8.15;;
7831;SDS011;3961;42.058;25.586;2022-08-19T09:30:38;8.93;;;7.25;;
7831;SDS011;3961;42.058;25.586;2022-08-19T09:33:05;14.77;;;7.10;;
7831;SDS011;3961;42.058;25.586;2022-08-19T09:35:32;11.75;;;7.38;;
7831;SDS011;3961;42.058;25.586;2022-08-19T09:37:58;16.23;;;7.70;;
7831;SDS011;3961;42.058;25.586;2022-08-19T09:40:26;9.93;;;7.03;;
7831;SDS011;3961;42.058;25.586;2022-08-19T09:42:52;9.77;;;6.70;;
7831;SDS011;3961;42.058;25.586;2022-08-19T09:45:19;13.70;;;7.45;;
7831;SDS011;3961;42.058;25.586;2022-08-19T09:47:47;8.50;;;7.40;;
7831;SDS011;3961;42.058;25.586;2022-08-19T09:50:14;10.35;;;7.13;;
7831;SDS011;3961;42.058;25.586;2022-08-19T09:52:40;9.82;;;7.43;;
7831;SDS011;3961;42.058;25.586;2022-08-19T09:55:07;8.02;;;7.00;;
7831;SDS011;3961;42.058;25.586;2022-08-19T09:57:35;8.27;;;7.22;;
7831;SDS011;3961;42.058;25.586;2022-08-19T10:00:01;7.50;;;6.80;;
7831;SDS011;3961;42.058;25.586;2022-08-19T10:02:28;9.98;;;6.80;;
7831;SDS011;3961;42.058;25.586;2022-08-19T10:04:54;8.15;;;6.60;;
7831;SDS011;3961;42.058;25.586;2022-08-19T10:07:38;8.43;;;6.13;;
7831;SDS011;3961;42.058;25.586;2022-08-19T10:10:04;7.07;;;6.45;;
7831;SDS011;3961;42.058;25.586;2022-08-19T10:12:34;8.82;;;7.22;;
7831;SDS011;3961;42.058;25.586;2022-08-19T10:15:00;8.18;;;7.07;;
7831;SDS011;3961;42.058;25.586;2022-08-19T10:17:27;7.07;;;6.38;;
7831;SDS011;3961;42.058;25.586;2022-08-19T10:19:54;8.65;;;6.40;;
7831;SDS011;3961;42.058;25.586;2022-08-19T10:22:19;12.98;;;6.90;;
7831;SDS011;3961;42.058;25.586;2022-08-19T10:24:45;10.73;;;6.72;;
7831;SDS011;3961;42.058;25.586;2022-08-19T10:27:11;9.07;;;6.97;;
7831;SDS011;3961;42.058;25.586;2022-08-19T10:29:38;11.77;;;6.35;;
7831;SDS011;3961;42.058;25.586;2022-08-19T10:32:05;9.55;;;7.13;;
7831;SDS011;3961;42.058;25.586;2022-08-19T10:34:33;8.02;;;6.40;;
7831;SDS011;3961;42.058;25.586;2022-08-19T10:37:01;10.65;;;7.03;;
7831;SDS011;3961;42.058;25.586;2022-08-19T10:39:31;8.00;;;7.03;;
7831;SDS011;3961;42.058;25.586;2022-08-19T10:41:57;8.75;;;6.22;;
7831;SDS011;3961;42.058;25.586;2022-08-19T10:44:23;12.63;;;6.78;;
7831;SDS011;3961;42.058;25.586;2022-08-19T10:46:49;13.82;;;6.82;;
7831;SDS011;3961;42.058;25.586;2022-08-19T10:49:14;9.38;;;7.75;;
7831;SDS011;3961;42.058;25.586;2022-08-19T10:51:40;13.05;;;8.40;;
7831;SDS011;3961;42.058;25.586;2022-08-19T10:54:25;15.95;;;7.35;;
7831;SDS011;3961;42.058;25.586;2022-08-19T10:57:12;9.00;;;7.05;;
7831;SDS011;3961;42.058;25.586;2022-08-19T10:59:37;8.40;;;6.75;;
7831;SDS011;3961;42.058;25.586;2022-08-19T11:02:05;7.47;;;6.15;;
7831;SDS011;3961;42.058;25.586;2022-08-19T11:04:34;10.07;;;7.57;;
7831;SDS011;3961;42.058;25.586;2022-08-19T11:07:00;9.23;;;7.28;;
7831;SDS011;3961;42.058;25.586;2022-08-19T11:09:27;10.23;;;7.15;;
7831;SDS011;3961;42.058;25.586;2022-08-19T11:11:53;8.80;;;7.07;;
7831;SDS011;3961;42.058;25.586;2022-08-19T11:14:19;8.98;;;7.07;;
7831;SDS011;3961;42.058;25.586;2022-08-19T11:16:46;10.23;;;7.35;;
7831;SDS011;3961;42.058;25.586;2022-08-19T11:19:14;9.95;;;6.95;;
7831;SDS011;3961;42.058;25.586;2022-08-19T11:21:43;42.10;;;34.28;;
7831;SDS011;3961;42.058;25.586;2022-08-19T11:24:11;11.32;;;10.18;;
7831;SDS011;3961;42.058;25.586;2022-08-19T11:26:42;11.15;;;8.52;;
7831;SDS011;3961;42.058;25.586;2022-08-19T11:29:09;7.88;;;7.07;;
7831;SDS011;3961;42.058;25.586;2022-08-19T11:31:39;8.43;;;7.35;;
7831;SDS011;3961;42.058;25.586;2022-08-19T11:34:08;12.40;;;6.57;;
7831;SDS011;3961;42.058;25.586;2022-08-19T11:36:37;8.88;;;6.72;;
7831;SDS011;3961;42.058;25.586;2022-08-19T11:39:05;7.72;;;6.93;;
7831;SDS011;3961;42.058;25.586;2022-08-19T11:41:33;13.85;;;6.72;;
7831;SDS011;3961;42.058;25.586;2022-08-19T11:43:59;11.02;;;8.27;;
7831;SDS011;3961;42.058;25.586;2022-08-19T11:46:25;9.70;;;6.55;;
7831;SDS011;3961;42.058;25.586;2022-08-19T11:48:55;11.13;;;7.60;;
7831;SDS011;3961;42.058;25.586;2022-08-19T11:51:22;10.57;;;6.70;;
7831;SDS011;3961;42.058;25.586;2022-08-19T11:53:52;8.52;;;7.13;;
7831;SDS011;3961;42.058;25.586;2022-08-19T11:56:19;8.02;;;7.30;;
7831;SDS011;3961;42.058;25.586;2022-08-19T11:58:45;8.02;;;6.32;;
7831;SDS011;3961;42.058;25.586;2022-08-19T12:01:12;7.72;;;6.57;;
7831;SDS011;3961;42.058;25.586;2022-08-19T12:03:41;8.00;;;6.75;;
7831;SDS011;3961;42.058;25.586;2022-08-19T12:06:09;9.93;;;6.38;;
7831;SDS011;3961;42.058;25.586;2022-08-19T12:08:39;7.88;;;6.10;;
7831;SDS011;3961;42.058;25.586;2022-08-19T12:11:05;8.07;;;5.57;;
7831;SDS011;3961;42.058;25.586;2022-08-19T12:13:33;7.18;;;5.40;;
7831;SDS011;3961;42.058;25.586;2022-08-19T12:16:00;9.57;;;6.13;;
7831;SDS011;3961;42.058;25.586;2022-08-19T12:18:31;7.18;;;5.55;;
7831;SDS011;3961;42.058;25.586;2022-08-19T12:20:57;6.72;;;5.45;;
7831;SDS011;3961;42.058;25.586;2022-08-19T12:23:22;9.80;;;5.60;;
7831;SDS011;3961;42.058;25.586;2022-08-19T12:25:49;86.05;;;77.10;;
7831;SDS011;3961;42.058;25.586;2022-08-19T12:28:20;39.40;;;35.13;;
7831;SDS011;3961;42.058;25.586;2022-08-19T12:30:48;9.73;;;7.07;;
7831;SDS011;3961;42.058;25.586;2022-08-19T12:33:16;11.95;;;8.25;;
7831;SDS011;3961;42.058;25.586;2022-08-19T12:35:43;6.85;;;5.88;;
7831;SDS011;3961;42.058;25.586;2022-08-19T12:38:10;10.98;;;6.10;;
7831;SDS011;3961;42.058;25.586;2022-08-19T12:40:36;7.93;;;5.90;;
7831;SDS011;3961;42.058;25.586;2022-08-19T12:43:02;8.80;;;5.75;;
7831;SDS011;3961;42.058;25.586;2022-08-19T12:45:28;7.45;;;5.93;;
7831;SDS011;3961;42.058;25.586;2022-08-19T12:47:53;12.43;;;5.38;;
7831;SDS011;3961;42.058;25.586;2022-08-19T12:50:21;5.57;;;5.05;;
7831;SDS011;3961;42.058;25.586;2022-08-19T12:52:47;6.45;;;5.65;;
7831;SDS011;3961;42.058;25.586;2022-08-19T12:55:13;9.48;;;5.85;;
7831;SDS011;3961;42.058;25.586;2022-08-19T12:57:39;9.48;;;5.50;;
7831;SDS011;3961;42.058;25.586;2022-08-19T13:00:07;8.52;;;5.45;;
7831;SDS011;3961;42.058;25.586;2022-08-19T13:02:39;6.60;;;5.35;;
7831;SDS011;3961;42.058;25.586;2022-08-19T13:05:10;10.60;;;5.00;;
7831;SDS011;3961;42.058;25.586;2022-08-19T13:07:39;5.78;;;4.80;;
7831;SDS011;3961;42.058;25.586;2022-08-19T13:10:06;5.13;;;4.63;;
7831;SDS011;3961;42.058;25.586;2022-08-19T13:12:33;8.38;;;4.60;;
7831;SDS011;3961;42.058;25.586;2022-08-19T13:14:59;5.85;;;4.72;;
7831;SDS011;3961;42.058;25.586;2022-08-19T13:17:25;7.30;;;4.90;;
7831;SDS011;3961;42.058;25.586;2022-08-19T13:19:50;5.65;;;4.78;;
7831;SDS011;3961;42.058;25.586;2022-08-19T13:22:16;10.80;;;4.78;;
7831;SDS011;3961;42.058;25.586;2022-08-19T13:24:42;5.50;;;4.07;;
7831;SDS011;3961;42.058;25.586;2022-08-19T13:27:08;7.80;;;4.75;;
7831;SDS011;3961;42.058;25.586;2022-08-19T13:29:33;6.00;;;4.75;;
7831;SDS011;3961;42.058;25.586;2022-08-19T13:32:17;8.73;;;4.82;;
7831;SDS011;3961;42.058;25.586;2022-08-19T13:35:02;7.57;;;4.45;;
7831;SDS011;3961;42.058;25.586;2022-08-19T13:37:29;5.90;;;4.35;;
7831;SDS011;3961;42.058;25.586;2022-08-19T13:40:16;5.47;;;4.97;;
7831;SDS011;3961;42.058;25.586;2022-08-19T13:42:44;4.80;;;4.13;;
7831;SDS011;3961;42.058;25.586;2022-08-19T13:45:12;6.13;;;4.75;;
7831;SDS011;3961;42.058;25.586;2022-08-19T13:47:40;6.97;;;5.05;;
7831;SDS011;3961;42.058;25.586;2022-08-19T13:50:10;6.70;;;4.30;;
7831;SDS011;3961;42.058;25.586;2022-08-19T13:52:37;8.38;;;4.55;;
7831;SDS011;3961;42.058;25.586;2022-08-19T13:55:04;5.30;;;4.55;;
7831;SDS011;3961;42.058;25.586;2022-08-19T13:57:31;6.38;;;4.68;;
7831;SDS011;3961;42.058;25.586;2022-08-19T13:59:57;5.97;;;4.10;;
7831;SDS011;3961;42.058;25.586;2022-08-19T14:02:23;12.35;;;4.40;;
7831;SDS011;3961;42.058;25.586;2022-08-19T14:04:49;6.95;;;4.38;;
7831;SDS011;3961;42.058;25.586;2022-08-19T14:07:15;8.50;;;4.40;;
7831;SDS011;3961;42.058;25.586;2022-08-19T14:09:41;4.80;;;4.30;;
7831;SDS011;3961;42.058;25.586;2022-08-19T14:12:06;10.38;;;4.28;;
7831;SDS011;3961;42.058;25.586;2022-08-19T14:14:36;6.07;;;4.45;;
7831;SDS011;3961;42.058;25.586;2022-08-19T14:17:06;6.90;;;4.32;;
7831;SDS011;3961;42.058;25.586;2022-08-19T14:19:32;36.03;;;32.20;;
7831;SDS011;3961;42.058;25.586;2022-08-19T14:21:58;7.28;;;3.97;;
7831;SDS011;3961;42.058;25.586;2022-08-19T14:24:24;7.97;;;4.30;;
7831;SDS011;3961;42.058;25.586;2022-08-19T14:26:50;7.93;;;4.45;;
7831;SDS011;3961;42.058;25.586;2022-08-19T14:29:15;6.30;;;4.28;;
7831;SDS011;3961;42.058;25.586;2022-08-19T14:31:41;4.40;;;4.00;;
7831;SDS011;3961;42.058;25.586;2022-08-19T14:34:09;5.35;;;4.30;;
7831;SDS011;3961;42.058;25.586;2022-08-19T14:36:35;6.95;;;4.43;;
7831;SDS011;3961;42.058;25.586;2022-08-19T14:39:01;5.10;;;4.28;;
7831;SDS011;3961;42.058;25.586;2022-08-19T14:41:27;7.82;;;4.10;;
7831;SDS011;3961;42.058;25.586;2022-08-19T14:43:55;5.22;;;4.38;;
7831;SDS011;3961;42.058;25.586;2022-08-19T14:46:22;6.07;;;4.38;;
7831;SDS011;3961;42.058;25.586;2022-08-19T14:48:50;4.93;;;4.53;;
7831;SDS011;3961;42.058;25.586;2022-08-19T14:51:17;5.80;;;4.45;;
7831;SDS011;3961;42.058;25.586;2022-08-19T14:53:43;6.05;;;4.18;;
7831;SDS011;3961;42.058;25.586;2022-08-19T14:56:09;5.47;;;4.50;;
7831;SDS011;3961;42.058;25.586;2022-08-19T14:58:37;5.07;;;4.57;;
7831;SDS011;3961;42.058;25.586;2022-08-19T15:01:05;6.03;;;4.57;;
7831;SDS011;3961;42.058;25.586;2022-08-19T15:03:30;4.90;;;3.88;;
7831;SDS011;3961;42.058;25.586;2022-08-19T15:05:57;6.30;;;4.47;;
7831;SDS011;3961;42.058;25.586;2022-08-19T15:08:25;14.25;;;4.72;;
7831;SDS011;3961;42.058;25.586;2022-08-19T15:10:52;9.65;;;4.75;;